createdAt,value
2023-08-25T00:00:27.702Z,28
2023-08-25T00:02:59.417Z,28
2023-08-25T00:05:30.473Z,28
2023-08-25T00:08:01.829Z,28
2023-08-25T00:10:33.087Z,24
2023-08-25T00:13:04.516Z,25
2023-08-25T00:15:35.651Z,24
2023-08-25T00:18:06.441Z,24
2023-08-25T00:20:37.416Z,27
2023-08-25T00:23:08.440Z,24
2023-08-25T00:25:39.131Z,23
2023-08-25T00:28:10.658Z,24
2023-08-25T00:30:42.294Z,24
2023-08-25T00:33:13.770Z,24
2023-08-25T00:35:45.383Z,24
2023-08-25T00:38:16.571Z,24
2023-08-25T00:40:47.579Z,24
2023-08-25T00:43:19.313Z,24
2023-08-25T00:45:50.860Z,24
2023-08-25T00:48:22.105Z,24
2023-08-25T00:50:53.039Z,24
2023-08-25T00:53:23.461Z,21
2023-08-25T00:55:54.288Z,24
2023-08-25T00:58:24.940Z,20
2023-08-25T01:00:55.940Z,24
2023-08-25T01:03:26.522Z,23
2023-08-25T01:05:57.309Z,24
2023-08-25T01:08:28.852Z,23
2023-08-25T01:11:00.200Z,24
2023-08-25T01:13:31.054Z,24
2023-08-25T01:16:01.859Z,22
2023-08-25T01:18:33.237Z,24
2023-08-25T01:21:04.501Z,24
2023-08-25T01:23:36.098Z,24
2023-08-25T01:26:07.292Z,26
2023-08-25T01:28:38.275Z,24
2023-08-25T01:31:09.526Z,27
2023-08-25T01:33:46.665Z,27
2023-08-25T01:36:17.666Z,27
2023-08-25T01:38:48.871Z,24
2023-08-25T01:41:20.013Z,24
2023-08-25T01:43:52.694Z,28
2023-08-25T01:46:24.167Z,26
2023-08-25T01:48:55.514Z,24
2023-08-25T01:51:26.434Z,24
2023-08-25T01:53:57.684Z,25
2023-08-25T01:56:29.267Z,24
2023-08-25T01:59:00.079Z,24
2023-08-25T02:01:30.950Z,24
2023-08-25T02:04:02.222Z,24
2023-08-25T02:06:33.663Z,24
2023-08-25T02:09:04.689Z,27
2023-08-25T02:11:35.357Z,28
2023-08-25T02:14:06.649Z,28
2023-08-25T02:16:37.951Z,24
2023-08-25T02:19:09.320Z,24
2023-08-25T02:21:40.870Z,24
2023-08-25T02:24:12.324Z,24
2023-08-25T02:26:43.664Z,24
2023-08-25T02:29:15.001Z,24
2023-08-25T02:31:46.489Z,24
2023-08-25T02:34:19.183Z,24
2023-08-25T02:36:49.363Z,24
2023-08-25T02:39:21.416Z,24
2023-08-25T02:41:53.013Z,24
2023-08-25T02:44:24.060Z,24
2023-08-25T02:46:55.847Z,23
2023-08-25T02:49:27.417Z,23
2023-08-25T02:51:59.086Z,24
2023-08-25T02:54:30.182Z,23
2023-08-25T02:57:01.254Z,24
2023-08-25T02:59:30.693Z,20
2023-08-25T03:02:01.844Z,24
2023-08-25T03:04:33.539Z,24
2023-08-25T03:07:04.773Z,24
2023-08-25T03:09:35.883Z,28
2023-08-25T03:12:07.347Z,24
2023-08-25T03:14:38.577Z,24
2023-08-25T03:17:09.654Z,24
2023-08-25T03:19:41.191Z,24
2023-08-25T03:22:12.846Z,24
2023-08-25T03:24:44.614Z,24
2023-08-25T03:27:15.981Z,24
2023-08-25T03:29:47.426Z,24
2023-08-25T03:32:18.894Z,24
2023-08-25T03:34:50.198Z,25
2023-08-25T03:37:21.540Z,24
2023-08-25T03:39:53.174Z,24
2023-08-25T03:42:24.075Z,24
2023-08-25T03:44:55.779Z,24
2023-08-25T03:47:27.213Z,24
2023-08-25T03:49:58.818Z,23
2023-08-25T03:52:29.915Z,24
2023-08-25T03:55:01.659Z,24
2023-08-25T03:57:32.568Z,24
2023-08-25T04:00:03.786Z,24
2023-08-25T04:02:35.361Z,24
2023-08-25T04:05:06.668Z,24
2023-08-25T04:07:37.411Z,24
2023-08-25T04:10:08.912Z,24
2023-08-25T04:12:39.840Z,22
2023-08-25T04:15:11.451Z,24
2023-08-25T04:17:42.449Z,24
2023-08-25T04:20:13.568Z,23
2023-08-25T04:22:44.084Z,20
2023-08-25T04:25:15.021Z,24
2023-08-25T04:27:45.974Z,24
2023-08-25T04:30:16.734Z,23
2023-08-25T04:32:48.333Z,24
2023-08-25T04:35:19.036Z,24
2023-08-25T04:37:49.809Z,20
2023-08-25T04:40:21.495Z,24
2023-08-25T04:42:52.672Z,24
2023-08-25T04:45:23.503Z,24
2023-08-25T04:47:54.957Z,24
2023-08-25T04:50:26.083Z,24
2023-08-25T04:52:57.592Z,24
2023-08-25T04:55:29.186Z,24
2023-08-25T04:58:00.574Z,24
2023-08-25T05:00:32.124Z,20
2023-08-25T05:03:03.777Z,24
2023-08-25T05:05:34.963Z,20
2023-08-25T05:08:06.521Z,23
2023-08-25T05:10:37.935Z,20
2023-08-25T05:13:09.218Z,20
2023-08-25T05:15:39.960Z,24
2023-08-25T05:18:09.958Z,20
2023-08-25T05:20:40.607Z,22
2023-08-25T05:23:12.476Z,20
2023-08-25T05:25:43.333Z,20
2023-08-25T05:28:14.111Z,24
2023-08-25T05:30:47.790Z,24
2023-08-25T05:33:25.641Z,21
2023-08-25T05:35:57.564Z,20
2023-08-25T05:38:31.895Z,23
2023-08-25T05:41:07.693Z,21
2023-08-25T05:43:38.683Z,20
2023-08-25T05:46:09.855Z,20
2023-08-25T05:48:40.446Z,20
2023-08-25T05:51:11.571Z,20
2023-08-25T05:53:43.157Z,21
2023-08-25T05:56:14.356Z,24
2023-08-25T05:58:49.797Z,22
2023-08-25T06:01:20.276Z,20
2023-08-25T06:03:51.345Z,24
2023-08-25T06:06:23.327Z,23
2023-08-25T06:08:53.954Z,22
2023-08-25T06:11:25.184Z,23
2023-08-25T06:13:56.434Z,20
2023-08-25T06:16:27.539Z,21
2023-08-25T06:18:59.142Z,20
2023-08-25T06:21:30.631Z,24
2023-08-25T06:24:02.046Z,24
2023-08-25T06:26:33.798Z,20
2023-08-25T06:29:05.180Z,20
2023-08-25T06:31:36.627Z,20
2023-08-25T06:34:07.798Z,20
2023-08-25T06:36:39.073Z,22
2023-08-25T06:39:09.864Z,20
2023-08-25T06:41:39.201Z,20
2023-08-25T06:44:10.348Z,20
2023-08-25T06:46:41.186Z,20
2023-08-25T06:49:12.272Z,20
2023-08-25T06:51:43.641Z,20
2023-08-25T06:54:14.237Z,24
2023-08-25T06:56:44.599Z,24
2023-08-25T06:59:15.781Z,24
2023-08-25T07:01:47.159Z,24
2023-08-25T07:04:18.214Z,24
2023-08-25T07:06:49.219Z,24
2023-08-25T07:09:19.837Z,23
2023-08-25T07:11:50.617Z,24
2023-08-25T07:14:21.017Z,20
2023-08-25T07:16:52.160Z,20
2023-08-25T07:19:23.372Z,20
2023-08-25T07:21:53.840Z,20
2023-08-25T07:24:25.065Z,20
2023-08-25T07:26:56.387Z,20
2023-08-25T07:29:27.395Z,24
2023-08-25T07:31:58.561Z,20
2023-08-25T07:34:29.689Z,20
2023-08-25T07:37:01.006Z,20
2023-08-25T07:39:31.841Z,20
2023-08-25T07:42:03.412Z,28
2023-08-25T07:44:34.537Z,20
2023-08-25T07:47:05.527Z,20
2023-08-25T07:49:36.171Z,16
2023-08-25T07:52:07.355Z,20
2023-08-25T07:54:38.641Z,20
2023-08-25T07:57:10.401Z,20
2023-08-25T07:59:41.670Z,20
2023-08-25T08:02:13.384Z,16
2023-08-25T08:04:42.661Z,20
2023-08-25T08:07:14.164Z,19
2023-08-25T08:09:45.219Z,20
2023-08-25T08:12:16.660Z,20
2023-08-25T08:14:47.787Z,18
2023-08-25T08:17:19.412Z,16
2023-08-25T08:19:50.484Z,20
2023-08-25T08:22:21.352Z,20
2023-08-25T08:24:52.241Z,16
2023-08-25T08:27:23.832Z,19
2023-08-25T08:29:52.746Z,20
2023-08-25T08:32:23.748Z,20
2023-08-25T08:34:54.996Z,17
2023-08-25T08:37:25.987Z,20
2023-08-25T08:39:56.914Z,19
2023-08-25T08:42:27.969Z,20
2023-08-25T08:44:58.933Z,20
2023-08-25T08:47:29.485Z,20
2023-08-25T08:50:00.634Z,16
2023-08-25T08:52:31.881Z,19
2023-08-25T08:55:02.857Z,20
2023-08-25T08:57:33.817Z,18
2023-08-25T09:00:05.006Z,20
2023-08-25T09:02:36.037Z,20
2023-08-25T09:05:07.285Z,20
2023-08-25T09:07:37.643Z,17
2023-08-25T09:10:07.932Z,20
2023-08-25T09:12:38.530Z,18
2023-08-25T09:15:09.536Z,20
2023-08-25T09:17:40.710Z,19
2023-08-25T09:20:11.887Z,20
2023-08-25T09:22:42.973Z,20
2023-08-25T09:25:14.391Z,20
2023-08-25T09:27:45.859Z,20
2023-08-25T09:30:16.906Z,20
2023-08-25T09:32:49.046Z,20
2023-08-25T09:35:18.959Z,20
2023-08-25T09:37:50.395Z,20
2023-08-25T09:40:21.810Z,19
2023-08-25T09:42:52.881Z,16
2023-08-25T09:45:23.222Z,20
2023-08-25T09:47:53.945Z,20
2023-08-25T09:50:24.938Z,19
2023-08-25T09:52:55.782Z,20
2023-08-25T09:55:26.909Z,20
2023-08-25T09:57:57.789Z,16
2023-08-25T10:00:28.817Z,16
2023-08-25T10:03:00.073Z,17
2023-08-25T10:05:30.656Z,20
2023-08-25T10:07:59.743Z,16
2023-08-25T10:10:30.811Z,19
2023-08-25T10:13:01.364Z,16
2023-08-25T10:15:31.816Z,16
2023-08-25T10:18:02.825Z,16
2023-08-25T10:20:35.082Z,19
2023-08-25T10:23:07.110Z,20
2023-08-25T10:25:37.920Z,18
2023-08-25T10:28:09.088Z,14
2023-08-25T10:30:40.675Z,20
2023-08-25T10:33:16.167Z,18
2023-08-25T10:35:51.959Z,16
2023-08-25T10:38:26.309Z,16
2023-08-25T10:40:57.179Z,20
2023-08-25T10:43:27.653Z,17
2023-08-25T10:45:58.744Z,19
2023-08-25T10:48:36.695Z,19
2023-08-25T10:51:03.580Z,20
2023-08-25T10:53:34.480Z,20
2023-08-25T10:56:05.525Z,20
2023-08-25T10:58:36.522Z,20
2023-08-25T11:01:10.891Z,20
2023-08-25T11:03:43.567Z,20
2023-08-25T11:06:14.089Z,16
2023-08-25T11:08:45.651Z,17
2023-08-25T11:11:16.848Z,20
2023-08-25T11:13:47.742Z,20
2023-08-25T11:16:18.786Z,20
2023-08-25T11:18:49.921Z,20
2023-08-25T11:21:21.108Z,20
2023-08-25T11:23:52.394Z,16
2023-08-25T11:26:24.061Z,19
2023-08-25T11:28:58.489Z,18
2023-08-25T11:31:29.481Z,16
2023-08-25T11:34:00.547Z,19
2023-08-25T11:36:31.769Z,20
2023-08-25T11:39:02.939Z,20
2023-08-25T11:41:33.894Z,16
2023-08-25T11:44:05.005Z,16
2023-08-25T11:46:36.208Z,19
2023-08-25T11:49:07.394Z,20
2023-08-25T11:51:37.911Z,16
2023-08-25T11:54:08.679Z,19
2023-08-25T11:56:39.680Z,20
2023-08-25T11:59:10.541Z,18
2023-08-25T12:01:41.423Z,16
2023-08-25T12:04:12.461Z,18
2023-08-25T12:06:43.409Z,20
2023-08-25T12:09:17.462Z,20
2023-08-25T12:11:47.608Z,16
2023-08-25T12:14:18.557Z,16
2023-08-25T12:16:49.455Z,17
2023-08-25T12:19:20.604Z,16
2023-08-25T12:21:51.503Z,20
2023-08-25T12:24:22.664Z,20
2023-08-25T12:26:53.925Z,18
2023-08-25T12:29:25.522Z,19
2023-08-25T12:31:56.476Z,19
2023-08-25T12:34:27.713Z,19
2023-08-25T12:36:58.717Z,19
2023-08-25T12:39:30.185Z,16
2023-08-25T12:42:01.711Z,16
2023-08-25T12:44:32.189Z,16
2023-08-25T12:47:03.333Z,16
2023-08-25T12:49:34.607Z,19
2023-08-25T12:52:05.484Z,16
2023-08-25T12:54:36.607Z,16
2023-08-25T12:57:07.591Z,17
2023-08-25T12:59:39.005Z,12
2023-08-25T13:02:09.807Z,16
2023-08-25T13:04:40.751Z,16
2023-08-25T13:07:12.042Z,20
2023-08-25T13:09:43.386Z,20
2023-08-25T13:12:14.090Z,16
2023-08-25T13:14:44.971Z,16
2023-08-25T13:17:15.484Z,16
2023-08-25T13:19:46.675Z,16
2023-08-25T13:22:17.631Z,16
2023-08-25T13:24:48.584Z,17
2023-08-25T13:27:19.530Z,18
2023-08-25T13:29:52.244Z,18
2023-08-25T13:32:33.527Z,17
2023-08-25T13:35:05.146Z,16
2023-08-25T13:37:36.699Z,16
2023-08-25T13:40:07.797Z,16
2023-08-25T13:42:38.826Z,16
2023-08-25T13:45:09.711Z,16
2023-08-25T13:47:40.582Z,16
2023-08-25T13:50:12.008Z,16
2023-08-25T13:52:43.138Z,12
2023-08-25T13:55:13.965Z,16
2023-08-25T13:57:44.916Z,16
2023-08-25T14:00:15.909Z,16
2023-08-25T14:02:47.472Z,16
2023-08-25T14:05:18.780Z,12
2023-08-25T14:07:49.845Z,12
2023-08-25T14:10:20.801Z,12
2023-08-25T14:12:51.937Z,16
2023-08-25T14:15:23.071Z,16
2023-08-25T14:17:54.242Z,15
2023-08-25T14:20:25.131Z,16
2023-08-25T14:22:56.286Z,16
2023-08-25T14:25:27.711Z,14
2023-08-25T14:27:59.062Z,15
2023-08-25T14:30:30.148Z,15
2023-08-25T14:33:01.630Z,16
2023-08-25T14:35:32.629Z,16
2023-08-25T14:38:03.960Z,16
2023-08-25T14:40:34.981Z,16
2023-08-25T14:43:06.274Z,16
2023-08-25T14:45:37.339Z,17
2023-08-25T14:48:08.640Z,15
2023-08-25T14:50:39.803Z,16
2023-08-25T14:53:11.818Z,16
2023-08-25T14:55:41.993Z,15
2023-08-25T14:58:13.099Z,16
2023-08-25T15:00:44.490Z,16
2023-08-25T15:03:15.348Z,16
2023-08-25T15:05:46.670Z,14
2023-08-25T15:08:17.533Z,12
2023-08-25T15:10:48.415Z,16
2023-08-25T15:13:24.855Z,16
2023-08-25T15:15:56.025Z,18
2023-08-25T15:18:27.105Z,12
2023-08-25T15:20:58.211Z,14
2023-08-25T15:23:29.270Z,16
2023-08-25T15:26:00.431Z,16
2023-08-25T15:28:30.779Z,16
2023-08-25T15:31:01.845Z,13
2023-08-25T15:33:32.783Z,16
2023-08-25T15:36:03.974Z,16
2023-08-25T15:38:34.430Z,16
2023-08-25T15:41:04.915Z,16
2023-08-25T15:43:35.995Z,14
2023-08-25T15:46:06.775Z,13
2023-08-25T15:48:37.884Z,16
2023-08-25T15:51:09.110Z,14
2023-08-25T15:53:40.017Z,15
2023-08-25T15:56:10.936Z,15
2023-08-25T15:58:41.959Z,16
2023-08-25T16:01:12.096Z,12
2023-08-25T16:03:42.674Z,16
2023-08-25T16:06:13.494Z,16
2023-08-25T16:08:44.036Z,12
2023-08-25T16:11:15.163Z,15
2023-08-25T16:13:46.343Z,16
2023-08-25T16:16:17.273Z,12
2023-08-25T16:18:48.385Z,16
2023-08-25T16:21:18.932Z,12
2023-08-25T16:23:49.464Z,12
2023-08-25T16:26:20.217Z,16
2023-08-25T16:28:50.839Z,13
2023-08-25T16:31:21.959Z,16
2023-08-25T16:33:53.145Z,12
2023-08-25T16:36:24.153Z,16
2023-08-25T16:38:54.945Z,16
2023-08-25T16:41:25.516Z,12
2023-08-25T16:43:57.998Z,12
2023-08-25T16:46:26.479Z,16
2023-08-25T16:48:56.948Z,19
2023-08-25T16:51:27.137Z,16
2023-08-25T16:53:57.641Z,12
2023-08-25T16:56:28.022Z,16
2023-08-25T16:58:58.564Z,16
2023-08-25T17:01:29.198Z,14
2023-08-25T17:03:59.952Z,16
2023-08-25T17:06:30.544Z,16
2023-08-25T17:09:01.621Z,18
2023-08-25T17:11:32.188Z,16
2023-08-25T17:14:02.677Z,16
2023-08-25T17:16:34.009Z,12
2023-08-25T17:19:04.847Z,16
2023-08-25T17:21:36.083Z,16
2023-08-25T17:24:06.604Z,16
2023-08-25T17:26:37.036Z,16
2023-08-25T17:29:07.354Z,16
2023-08-25T17:31:37.884Z,16
2023-08-25T17:34:08.267Z,16
2023-08-25T17:36:39.520Z,16
2023-08-25T17:39:10.793Z,23
2023-08-25T17:41:41.059Z,20
2023-08-25T17:44:12.189Z,20
2023-08-25T17:46:43.780Z,19
2023-08-25T17:49:14.411Z,20
2023-08-25T17:51:45.451Z,17
2023-08-25T17:54:16.723Z,19
2023-08-25T17:56:47.496Z,20
2023-08-25T17:59:18.157Z,18
2023-08-25T18:01:49.234Z,20
2023-08-25T18:04:20.213Z,20
2023-08-25T18:06:49.157Z,20
2023-08-25T18:09:20.440Z,19
2023-08-25T18:11:51.125Z,20
2023-08-25T18:14:21.887Z,24
2023-08-25T18:16:52.461Z,20
2023-08-25T18:19:23.151Z,20
2023-08-25T18:21:53.541Z,22
2023-08-25T18:24:24.251Z,24
2023-08-25T18:26:55.255Z,24
2023-08-25T18:29:26.218Z,24
2023-08-25T18:31:58.349Z,24
2023-08-25T18:34:28.129Z,24
2023-08-25T18:36:59.023Z,24
2023-08-25T18:39:30.141Z,24
2023-08-25T18:42:00.495Z,23
2023-08-25T18:44:30.988Z,23
2023-08-25T18:47:01.629Z,20
2023-08-25T18:49:32.123Z,21
2023-08-25T18:52:03.175Z,20
2023-08-25T18:54:37.712Z,20
2023-08-25T18:57:09.844Z,24
2023-08-25T18:59:40.389Z,20
2023-08-25T19:02:11.589Z,20
2023-08-25T19:04:42.689Z,24
2023-08-25T19:07:13.312Z,23
2023-08-25T19:09:45.832Z,20
2023-08-25T19:12:15.938Z,20
2023-08-25T19:14:47.165Z,20
2023-08-25T19:17:16.136Z,20
2023-08-25T19:19:47.344Z,20
2023-08-25T19:22:18.341Z,17
2023-08-25T19:24:49.147Z,20
2023-08-25T19:27:20.168Z,24
2023-08-25T19:29:51.153Z,23
2023-08-25T19:32:22.350Z,20
2023-08-25T19:34:53.202Z,22
2023-08-25T19:37:23.986Z,20
2023-08-25T19:39:55.359Z,20
2023-08-25T19:42:26.457Z,20
2023-08-25T19:44:59.239Z,20
2023-08-25T19:47:30.410Z,20
2023-08-25T19:50:01.508Z,20
2023-08-25T19:52:32.075Z,20
2023-08-25T19:55:03.007Z,20
2023-08-25T19:57:34.459Z,24
2023-08-25T20:00:05.032Z,20
2023-08-25T20:02:36.063Z,20
2023-08-25T20:05:06.791Z,20
2023-08-25T20:07:37.141Z,20
2023-08-25T20:10:08.076Z,22
2023-08-25T20:12:38.720Z,23
2023-08-25T20:15:09.585Z,20
2023-08-25T20:17:40.717Z,20
2023-08-25T20:20:11.284Z,24
2023-08-25T20:22:42.133Z,20
2023-08-25T20:25:13.147Z,20
2023-08-25T20:27:44.621Z,24
2023-08-25T20:30:13.629Z,24
2023-08-25T20:32:44.646Z,24
2023-08-25T20:35:15.128Z,27
2023-08-25T20:37:45.772Z,24
2023-08-25T20:40:16.720Z,24
2023-08-25T20:42:47.107Z,24
2023-08-25T20:45:17.877Z,24
2023-08-25T20:47:49.067Z,24
2023-08-25T20:50:20.074Z,28
2023-08-25T20:52:50.577Z,24
2023-08-25T20:55:21.601Z,24
2023-08-25T20:57:52.599Z,24
2023-08-25T21:00:23.747Z,24
2023-08-25T21:02:55.008Z,24
2023-08-25T21:05:25.822Z,24
2023-08-25T21:07:56.724Z,24
2023-08-25T21:10:27.492Z,24
2023-08-25T21:12:58.697Z,24
2023-08-25T21:15:29.508Z,24
2023-08-25T21:18:00.654Z,24
2023-08-25T21:20:31.790Z,24
2023-08-25T21:23:02.892Z,24
2023-08-25T21:25:33.921Z,24
2023-08-25T21:28:04.481Z,24
2023-08-25T21:30:35.283Z,24
2023-08-25T21:33:05.755Z,24
2023-08-25T21:35:36.959Z,24
2023-08-25T21:38:07.373Z,24
2023-08-25T21:40:37.762Z,23
2023-08-25T21:43:08.433Z,24
2023-08-25T21:45:39.263Z,24
2023-08-25T21:48:10.102Z,24
2023-08-25T21:50:40.792Z,24
2023-08-25T21:53:11.872Z,20
2023-08-25T21:55:42.598Z,24
2023-08-25T21:58:13.227Z,24
2023-08-25T22:00:43.856Z,24
2023-08-25T22:03:15.082Z,28
2023-08-25T22:05:45.395Z,24
2023-08-25T22:08:16.416Z,26
2023-08-25T22:10:50.048Z,24
2023-08-25T22:13:20.611Z,26
2023-08-25T22:15:52.034Z,25
2023-08-25T22:18:22.970Z,25
2023-08-25T22:20:53.835Z,28
2023-08-25T22:23:24.828Z,28
2023-08-25T22:25:55.584Z,24
2023-08-25T22:28:26.795Z,27
2023-08-25T22:30:57.562Z,27
2023-08-25T22:36:00.508Z,27
2023-08-25T22:38:31.649Z,27
2023-08-25T22:41:02.345Z,28
2023-08-25T22:43:32.913Z,28
2023-08-25T22:46:03.744Z,28
2023-08-25T22:48:34.435Z,28
2023-08-25T22:51:05.851Z,31
2023-08-25T22:53:36.346Z,28
2023-08-25T22:56:07.525Z,31
2023-08-25T22:58:38.350Z,32
2023-08-25T23:01:08.739Z,32
2023-08-25T23:03:39.864Z,28
2023-08-25T23:06:10.852Z,32
2023-08-25T23:08:41.652Z,32
2023-08-25T23:11:12.064Z,30
2023-08-25T23:13:43.135Z,28
2023-08-25T23:16:14.114Z,28
2023-08-25T23:18:45.523Z,28
2023-08-25T23:21:16.259Z,28
2023-08-25T23:23:46.945Z,28
2023-08-25T23:26:17.947Z,28
2023-08-25T23:28:49.409Z,28
2023-08-25T23:31:20.815Z,28
2023-08-25T23:33:52.413Z,32
2023-08-25T23:36:23.122Z,40
2023-08-25T23:38:54.445Z,39
2023-08-25T23:41:25.869Z,36
2023-08-25T23:43:56.980Z,34
2023-08-25T23:46:28.040Z,32
2023-08-25T23:48:59.074Z,28
2023-08-25T23:51:30.082Z,28
2023-08-25T23:54:01.182Z,28
2023-08-25T23:56:32.648Z,28
2023-08-25T23:59:04.117Z,28
